createdAt,value
2023-01-18T00:00:29.191Z,99142.14
2023-01-18T00:03:21.758Z,99145.67
2023-01-18T00:05:55.449Z,99148.16
2023-01-18T00:08:27.784Z,99150.98
2023-01-18T00:11:05.547Z,99150.13
2023-01-18T00:13:38.103Z,99154.61
2023-01-18T00:16:14.155Z,99161.88
2023-01-18T00:18:51.129Z,99169.37
2023-01-18T00:21:24.310Z,99168.29
2023-01-18T00:23:57.284Z,99171.55
2023-01-18T00:26:29.563Z,99174.31
2023-01-18T00:29:01.888Z,99178.66
2023-01-18T00:31:34.188Z,99180.98
2023-01-18T00:34:06.523Z,99184.19
2023-01-18T00:36:38.992Z,99185.52
2023-01-18T00:39:13.025Z,99181.98
2023-01-18T00:41:59.241Z,99180.32
2023-01-18T00:44:32.159Z,99177.35
2023-01-18T00:47:04.317Z,99176.16
2023-01-18T00:49:36.622Z,99172.85
2023-01-18T00:52:09.093Z,99168.47
2023-01-18T00:54:41.385Z,99168.73
2023-01-18T00:57:13.861Z,99169.55
2023-01-18T00:59:48.061Z,99171.52
2023-01-18T01:02:20.354Z,99173.89
2023-01-18T01:05:10.073Z,99175.37
2023-01-18T01:07:42.237Z,99176.09
2023-01-18T01:10:15.275Z,99179.05
2023-01-18T01:13:05.463Z,99177.73
2023-01-18T01:15:57.051Z,99165.23
2023-01-18T01:18:46.672Z,99155.75
2023-01-18T01:21:36.610Z,99149.27
2023-01-18T01:24:26.649Z,99152.00
2023-01-18T01:26:58.888Z,99152.32
2023-01-18T01:29:31.133Z,99149.77
2023-01-18T01:32:03.810Z,99152.09
2023-01-18T01:34:36.094Z,99147.25
2023-01-18T01:37:08.606Z,99140.80
2023-01-18T01:39:40.872Z,99140.12
2023-01-18T01:42:14.613Z,99139.91
2023-01-18T01:44:52.521Z,99143.17
2023-01-18T01:47:41.303Z,99148.47
2023-01-18T01:50:25.713Z,99156.59
2023-01-18T01:52:59.436Z,99152.24
2023-01-18T01:55:33.882Z,99153.31
2023-01-18T01:58:10.486Z,99152.88
2023-01-18T02:00:42.904Z,99152.89
2023-01-18T02:03:19.293Z,99152.50
2023-01-18T02:05:56.807Z,99153.81
2023-01-18T02:08:29.540Z,99150.03
2023-01-18T02:11:01.709Z,99146.78
2023-01-18T02:13:34.075Z,99145.91
2023-01-18T02:16:14.917Z,99137.48
2023-01-18T02:18:55.917Z,99136.71
2023-01-18T02:21:35.125Z,99137.41
2023-01-18T02:24:59.862Z,99136.14
2023-01-18T02:27:43.682Z,99138.99
2023-01-18T02:30:24.166Z,99140.70
2023-01-18T02:33:06.430Z,99137.11
2023-01-18T02:35:49.842Z,99138.30
2023-01-18T02:38:26.095Z,99143.45
2023-01-18T02:41:10.058Z,99144.21
2023-01-18T02:44:01.483Z,99148.91
2023-01-18T02:46:39.032Z,99149.08
2023-01-18T02:49:13.510Z,99149.95
2023-01-18T02:51:45.750Z,99147.30
2023-01-18T02:54:24.709Z,99147.95
2023-01-18T02:56:57.885Z,99147.80
2023-01-18T02:59:36.818Z,99145.52
2023-01-18T03:02:13.281Z,99141.61
2023-01-18T03:04:54.511Z,99138.55
2023-01-18T03:07:32.112Z,99143.02
2023-01-18T03:10:08.221Z,99142.30
2023-01-18T03:12:49.737Z,99136.60
2023-01-18T03:15:30.163Z,99138.28
2023-01-18T03:18:06.208Z,99136.94
2023-01-18T03:20:44.557Z,99137.38
2023-01-18T03:23:40.095Z,99133.96
2023-01-18T03:26:16.558Z,99132.40
2023-01-18T03:29:11.981Z,99134.10
2023-01-18T03:32:05.785Z,99135.77
2023-01-18T03:34:45.247Z,99135.91
2023-01-18T03:37:22.558Z,99132.30
2023-01-18T03:39:58.492Z,99136.66
2023-01-18T03:42:30.533Z,99137.71
2023-01-18T03:45:10.060Z,99136.30
2023-01-18T03:47:42.775Z,99135.63
2023-01-18T03:50:15.783Z,99126.30
2023-01-18T03:52:52.693Z,99125.50
2023-01-18T03:55:32.606Z,99132.74
2023-01-18T03:58:09.636Z,99139.10
2023-01-18T04:00:42.683Z,99143.17
2023-01-18T04:03:14.901Z,99146.64
2023-01-18T04:05:47.301Z,99147.44
2023-01-18T04:08:21.999Z,99148.00
2023-01-18T04:10:54.188Z,99149.11
2023-01-18T04:13:26.496Z,99145.47
2023-01-18T04:15:58.716Z,99143.68
2023-01-18T04:18:31.079Z,99146.84
2023-01-18T04:21:03.661Z,99149.91
2023-01-18T04:23:35.943Z,99153.73
2023-01-18T04:26:08.345Z,99156.80
2023-01-18T04:28:40.493Z,99154.34
2023-01-18T04:31:12.760Z,99155.83
2023-01-18T04:33:45.009Z,99161.69
2023-01-18T04:36:17.276Z,99162.98
2023-01-18T04:38:53.257Z,99168.90
2023-01-18T04:41:26.064Z,99166.05
2023-01-18T04:43:58.253Z,99167.67
2023-01-18T04:46:30.591Z,99170.84
2023-01-18T04:49:02.827Z,99173.40
2023-01-18T04:51:35.315Z,99178.32
2023-01-18T04:54:07.690Z,99182.91
2023-01-18T04:56:40.481Z,99182.73
2023-01-18T04:59:15.758Z,99183.13
2023-01-18T05:01:48.218Z,99182.67
2023-01-18T05:04:20.782Z,99180.59
2023-01-18T05:06:53.553Z,99182.52
2023-01-18T05:09:25.822Z,99188.06
2023-01-18T05:11:58.070Z,99193.80
2023-01-18T05:14:30.446Z,99202.81
2023-01-18T05:17:02.721Z,99207.25
2023-01-18T05:19:36.692Z,99205.44
2023-01-18T05:22:08.989Z,99204.66
2023-01-18T05:24:41.276Z,99203.13
2023-01-18T05:27:13.456Z,99206.06
2023-01-18T05:29:45.781Z,99208.59
2023-01-18T05:32:18.100Z,99205.08
2023-01-18T05:34:50.389Z,99204.36
2023-01-18T05:37:22.652Z,99205.30
2023-01-18T05:39:54.868Z,99207.09
2023-01-18T05:42:27.148Z,99210.50
2023-01-18T05:44:59.535Z,99215.81
2023-01-18T05:47:31.969Z,99215.31
2023-01-18T05:50:04.270Z,99217.67
2023-01-18T05:52:36.457Z,99215.50
2023-01-18T05:55:10.089Z,99207.98
2023-01-18T05:57:42.324Z,99212.95
2023-01-18T06:00:15.643Z,99218.21
2023-01-18T06:02:47.948Z,99224.77
2023-01-18T06:05:20.848Z,99222.77
2023-01-18T06:07:53.460Z,99221.66
2023-01-18T06:10:25.723Z,99227.53
2023-01-18T06:12:58.222Z,99218.27
2023-01-18T06:15:30.714Z,99224.34
2023-01-18T06:18:03.713Z,99223.96
2023-01-18T06:20:36.115Z,99229.47
2023-01-18T06:23:08.284Z,99231.11
2023-01-18T06:25:40.490Z,99229.41
2023-01-18T06:28:12.706Z,99228.78
2023-01-18T06:30:47.839Z,99222.23
2023-01-18T06:33:20.127Z,99224.91
2023-01-18T06:35:52.687Z,99226.79
2023-01-18T06:38:25.010Z,99224.11
2023-01-18T06:40:57.237Z,99220.17
2023-01-18T06:43:29.549Z,99222.84
2023-01-18T06:46:02.958Z,99226.77
2023-01-18T06:48:35.291Z,99240.73
2023-01-18T06:51:07.920Z,99241.02
2023-01-18T06:53:40.329Z,99245.65
2023-01-18T06:56:14.051Z,99251.30
2023-01-18T06:58:48.149Z,99252.15
2023-01-18T07:01:22.384Z,99251.31
2023-01-18T07:03:54.986Z,99246.42
2023-01-18T07:06:27.695Z,99245.45
2023-01-18T07:08:59.964Z,99242.95
2023-01-18T07:11:32.598Z,99246.98
2023-01-18T07:14:04.778Z,99248.20
2023-01-18T07:16:37.092Z,99248.02
2023-01-18T07:19:09.815Z,99247.07
2023-01-18T07:21:42.095Z,99244.77
2023-01-18T07:24:14.424Z,99239.20
2023-01-18T07:26:46.740Z,99239.95
2023-01-18T07:29:18.932Z,99240.95
2023-01-18T07:31:51.709Z,99236.65
2023-01-18T07:34:23.934Z,99241.77
2023-01-18T07:36:56.199Z,99233.88
2023-01-18T07:39:28.505Z,99239.92
2023-01-18T07:42:00.792Z,99246.81
2023-01-18T07:44:33.130Z,99245.75
2023-01-18T07:47:05.342Z,99245.80
2023-01-18T07:49:37.708Z,99243.42
2023-01-18T07:52:10.438Z,99238.77
2023-01-18T07:54:42.974Z,99233.34
2023-01-18T07:57:15.191Z,99236.89
2023-01-18T07:59:47.391Z,99245.00
2023-01-18T08:02:19.923Z,99238.42
2023-01-18T08:04:52.620Z,99236.48
2023-01-18T08:07:25.472Z,99236.29
2023-01-18T08:09:58.207Z,99238.57
2023-01-18T08:12:30.528Z,99240.41
2023-01-18T08:15:02.825Z,99240.05
2023-01-18T08:17:35.575Z,99240.82
2023-01-18T08:20:09.878Z,99238.15
2023-01-18T08:22:42.203Z,99237.56
2023-01-18T08:25:14.475Z,99240.23
2023-01-18T08:27:46.953Z,99244.27
2023-01-18T08:30:20.278Z,99246.45
2023-01-18T08:32:52.920Z,99240.04
2023-01-18T08:35:26.137Z,99248.35
2023-01-18T08:37:59.546Z,99240.80
2023-01-18T08:40:32.999Z,99233.02
2023-01-18T08:43:07.008Z,99236.85
2023-01-18T08:45:39.200Z,99231.66
2023-01-18T08:48:13.658Z,99239.98
2023-01-18T08:50:46.553Z,99240.31
2023-01-18T08:53:18.925Z,99233.18
2023-01-18T08:55:56.080Z,99235.48
2023-01-18T08:58:28.359Z,99242.18
2023-01-18T09:01:00.707Z,99242.52
2023-01-18T09:03:33.058Z,99243.96
2023-01-18T09:06:08.697Z,99237.84
2023-01-18T09:08:41.899Z,99232.77
2023-01-18T09:11:14.231Z,99235.88
2023-01-18T09:13:59.718Z,99235.86
2023-01-18T09:16:33.277Z,99244.67
2023-01-18T09:19:06.649Z,99245.05
2023-01-18T09:21:39.884Z,99243.94
2023-01-18T09:24:13.226Z,99249.17
2023-01-18T09:26:46.498Z,99257.59
2023-01-18T09:29:19.166Z,99253.56
2023-01-18T09:31:54.082Z,99243.98
2023-01-18T09:34:28.335Z,99244.45
2023-01-18T09:37:03.039Z,99239.53
2023-01-18T09:39:50.457Z,99242.77
2023-01-18T09:42:27.495Z,99242.81
2023-01-18T09:45:01.957Z,99241.80
2023-01-18T09:47:39.249Z,99244.42
2023-01-18T09:50:18.145Z,99248.91
2023-01-18T09:52:54.927Z,99256.90
2023-01-18T09:55:34.008Z,99247.21
2023-01-18T09:58:24.751Z,99247.50
2023-01-18T10:01:03.164Z,99253.50
2023-01-18T10:03:47.601Z,99251.36
2023-01-18T10:06:25.393Z,99248.25
2023-01-18T10:09:04.485Z,99248.70
2023-01-18T10:11:47.471Z,99248.79
2023-01-18T10:14:23.970Z,99256.59
2023-01-18T10:17:01.364Z,99259.63
2023-01-18T10:19:35.184Z,99259.02
2023-01-18T10:22:13.549Z,99268.98
2023-01-18T10:24:53.972Z,99265.48
2023-01-18T10:28:08.659Z,99265.98
2023-01-18T10:31:05.777Z,99268.23
2023-01-18T10:33:42.381Z,99257.20
2023-01-18T10:36:19.108Z,99259.66
2023-01-18T10:38:53.488Z,99252.57
2023-01-18T10:41:29.813Z,99255.50
2023-01-18T10:44:02.924Z,99250.85
2023-01-18T10:46:35.225Z,99249.84
2023-01-18T10:49:09.392Z,99254.98
2023-01-18T10:51:41.753Z,99258.02
2023-01-18T10:54:29.022Z,99267.15
2023-01-18T10:57:17.908Z,99268.09
2023-01-18T10:59:55.025Z,99271.76
2023-01-18T11:02:31.345Z,99277.14
2023-01-18T11:05:20.718Z,99292.00
2023-01-18T11:08:13.919Z,99284.02
2023-01-18T11:10:46.776Z,99279.31
2023-01-18T11:13:32.466Z,99279.23
2023-01-18T11:16:13.750Z,99278.41
2023-01-18T11:19:00.666Z,99279.84
2023-01-18T11:21:45.683Z,99281.73
2023-01-18T11:24:25.019Z,99275.92
2023-01-18T11:27:01.854Z,99277.39
2023-01-18T11:29:39.762Z,99280.25
2023-01-18T11:32:20.880Z,99279.33
2023-01-18T11:34:56.389Z,99287.05
2023-01-18T11:37:37.563Z,99285.75
2023-01-18T11:40:35.072Z,99289.05
2023-01-18T11:43:17.189Z,99289.08
2023-01-18T11:45:58.387Z,99288.39
2023-01-18T11:48:37.033Z,99289.30
2023-01-18T11:51:19.865Z,99296.95
2023-01-18T11:53:59.893Z,99293.63
2023-01-18T11:56:42.273Z,99297.44
2023-01-18T11:59:23.561Z,99304.92
2023-01-18T12:02:25.333Z,99298.02
2023-01-18T12:05:15.224Z,99302.42
2023-01-18T12:07:59.296Z,99307.09
2023-01-18T12:10:39.513Z,99311.70
2023-01-18T12:13:34.769Z,99307.56
2023-01-18T12:16:25.752Z,99312.42
2023-01-18T12:19:25.689Z,99315.51
2023-01-18T12:22:24.803Z,99319.09
2023-01-18T12:25:11.798Z,99325.56
2023-01-18T12:27:51.660Z,99332.13
2023-01-18T12:30:44.366Z,99340.30
2023-01-18T12:33:42.717Z,99339.33
2023-01-18T12:36:27.566Z,99335.94
2023-01-18T12:39:04.098Z,99341.99
2023-01-18T12:41:44.937Z,99350.06
2023-01-18T12:44:39.149Z,99359.16
2023-01-18T12:47:36.255Z,99362.80
2023-01-18T12:50:18.927Z,99371.30
2023-01-18T12:52:57.542Z,99374.59
2023-01-18T12:55:33.163Z,99373.46
2023-01-18T12:58:06.665Z,99373.27
2023-01-18T13:00:41.796Z,99377.96
2023-01-18T13:03:17.847Z,99376.14
2023-01-18T13:05:55.501Z,99373.76
2023-01-18T13:08:44.767Z,99378.92
2023-01-18T13:11:20.988Z,99385.83
2023-01-18T13:14:00.589Z,99387.55
2023-01-18T13:16:44.628Z,99383.91
2023-01-18T13:19:24.556Z,99383.60
2023-01-18T13:22:06.780Z,99383.95
2023-01-18T13:24:53.828Z,99384.53
2023-01-18T13:27:27.376Z,99387.30
2023-01-18T13:30:10.524Z,99389.93
2023-01-18T13:32:47.710Z,99391.89
2023-01-18T13:35:25.890Z,99396.69
2023-01-18T13:38:00.721Z,99399.76
2023-01-18T13:40:41.302Z,99400.66
2023-01-18T13:43:34.160Z,99401.19
2023-01-18T13:46:22.548Z,99403.33
2023-01-18T13:48:57.663Z,99403.82
2023-01-18T13:51:54.351Z,99405.85
2023-01-18T13:55:03.948Z,99409.40
2023-01-18T13:57:37.590Z,99402.87
2023-01-18T14:00:26.047Z,99397.63
2023-01-18T14:03:07.290Z,99397.83
2023-01-18T14:05:43.866Z,99396.00
2023-01-18T14:08:24.854Z,99403.85
2023-01-18T14:11:02.340Z,99408.40
2023-01-18T14:14:04.573Z,99414.57
2023-01-18T14:16:40.106Z,99424.30
2023-01-18T14:19:18.581Z,99429.27
2023-01-18T14:22:08.967Z,99438.27
2023-01-18T14:24:55.553Z,99444.98
2023-01-18T14:27:33.722Z,99447.61
2023-01-18T14:30:12.857Z,99453.11
2023-01-18T14:32:56.876Z,99464.48
2023-01-18T14:35:29.736Z,99473.55
2023-01-18T14:38:18.231Z,99479.95
2023-01-18T14:40:53.972Z,99481.05
2023-01-18T14:43:30.858Z,99485.40
2023-01-18T14:46:06.629Z,99495.40
2023-01-18T14:48:46.886Z,99502.48
2023-01-18T14:51:23.479Z,99507.38
2023-01-18T14:53:58.267Z,99510.60
2023-01-18T14:56:34.106Z,99512.16
2023-01-18T14:59:21.836Z,99516.32
2023-01-18T15:01:57.034Z,99508.96
2023-01-18T15:04:31.525Z,99512.52
2023-01-18T15:07:07.753Z,99514.16
2023-01-18T15:09:44.435Z,99514.27
2023-01-18T15:12:23.929Z,99515.66
2023-01-18T15:14:59.751Z,99516.42
2023-01-18T15:17:32.438Z,99521.07
2023-01-18T15:20:08.246Z,99525.30
2023-01-18T15:22:41.709Z,99525.57
2023-01-18T15:25:26.208Z,99522.09
2023-01-18T15:28:11.907Z,99522.80
2023-01-18T15:30:56.286Z,99523.67
2023-01-18T15:33:32.597Z,99526.90
2023-01-18T15:36:05.327Z,99525.86
2023-01-18T15:38:38.367Z,99526.72
2023-01-18T15:41:14.868Z,99533.08
2023-01-18T15:43:48.965Z,99534.73
2023-01-18T15:46:23.783Z,99542.17
2023-01-18T15:48:58.506Z,99547.32
2023-01-18T15:51:44.678Z,99553.27
2023-01-18T15:54:19.400Z,99552.31
2023-01-18T15:56:52.063Z,99552.99
2023-01-18T15:59:27.398Z,99550.08
2023-01-18T16:02:19.227Z,99555.06
2023-01-18T16:05:08.937Z,99562.33
2023-01-18T16:07:43.160Z,99566.73
2023-01-18T16:10:30.559Z,99578.64
2023-01-18T16:13:30.809Z,99584.30
2023-01-18T16:16:26.721Z,99587.96
2023-01-18T16:19:14.905Z,99588.56
2023-01-18T16:21:51.617Z,99593.39
2023-01-18T16:24:30.823Z,99598.98
2023-01-18T16:27:12.188Z,99610.08
2023-01-18T16:29:50.569Z,99613.98
2023-01-18T16:32:32.945Z,99615.87
2023-01-18T16:35:13.151Z,99621.83
2023-01-18T16:37:45.841Z,99628.59
2023-01-18T16:40:22.756Z,99633.56
2023-01-18T16:43:04.904Z,99641.52
2023-01-18T16:45:39.140Z,99643.56
2023-01-18T16:48:18.192Z,99645.35
2023-01-18T16:50:51.765Z,99644.39
2023-01-18T16:53:24.456Z,99645.05
2023-01-18T16:55:57.405Z,99646.14
2023-01-18T16:58:34.243Z,99647.30
2023-01-18T17:01:12.694Z,99649.05
2023-01-18T17:03:45.274Z,99651.23
2023-01-18T17:06:20.612Z,99649.17
2023-01-18T17:08:52.940Z,99647.00
2023-01-18T17:11:25.244Z,99646.37
2023-01-18T17:13:57.637Z,99649.62
2023-01-18T17:16:29.905Z,99656.26
2023-01-18T17:19:02.227Z,99656.36
2023-01-18T17:21:34.869Z,99667.98
2023-01-18T17:24:07.725Z,99676.52
2023-01-18T17:26:41.823Z,99700.19
2023-01-18T17:29:17.992Z,99712.33
2023-01-18T17:31:52.850Z,99702.15
2023-01-18T17:34:28.347Z,99704.66
2023-01-18T17:37:03.336Z,99722.30
2023-01-18T17:39:44.174Z,99724.09
2023-01-18T17:42:29.991Z,99724.55
2023-01-18T17:45:06.806Z,99724.65
2023-01-18T17:47:40.161Z,99724.67
2023-01-18T17:50:19.133Z,99732.14
2023-01-18T17:52:52.153Z,99739.20
2023-01-18T17:55:34.272Z,99744.23
2023-01-18T17:58:07.231Z,99746.52
2023-01-18T18:00:39.602Z,99748.39
2023-01-18T18:03:11.911Z,99760.20
2023-01-18T18:05:45.416Z,99776.67
2023-01-18T18:08:17.569Z,99787.56
2023-01-18T18:10:49.883Z,99795.68
2023-01-18T18:13:22.403Z,99793.53
2023-01-18T18:15:55.577Z,99805.40
2023-01-18T18:18:27.928Z,99815.06
2023-01-18T18:21:05.539Z,99808.52
2023-01-18T18:23:38.481Z,99808.52
2023-01-18T18:26:10.800Z,99803.77
2023-01-18T18:28:43.044Z,99799.25
2023-01-18T18:31:17.347Z,99800.26
2023-01-18T18:33:49.849Z,99806.54
2023-01-18T18:36:22.644Z,99810.32
2023-01-18T18:38:55.134Z,99815.55
2023-01-18T18:41:27.466Z,99827.00
2023-01-18T18:43:59.906Z,99825.05
2023-01-18T18:46:32.421Z,99825.95
2023-01-18T18:49:04.680Z,99817.50
2023-01-18T18:51:37.004Z,99817.60
2023-01-18T18:54:11.244Z,99823.83
2023-01-18T18:56:44.129Z,99821.64
2023-01-18T18:59:16.498Z,99833.20
2023-01-18T19:01:51.963Z,99839.08
2023-01-18T19:04:24.393Z,99846.77
2023-01-18T19:06:56.877Z,99851.23
2023-01-18T19:09:29.186Z,99853.51
2023-01-18T19:12:01.467Z,99852.20
2023-01-18T19:14:33.741Z,99848.94
2023-01-18T19:17:06.817Z,99853.23
2023-01-18T19:19:39.139Z,99848.42
2023-01-18T19:22:11.621Z,99857.11
2023-01-18T19:24:44.204Z,99858.27
2023-01-18T19:27:16.651Z,99852.96
2023-01-18T19:29:48.897Z,99854.77
2023-01-18T19:32:23.952Z,99850.10
2023-01-18T19:34:56.190Z,99844.77
2023-01-18T19:37:28.709Z,99840.52
2023-01-18T19:40:01.038Z,99835.35
2023-01-18T19:42:33.275Z,99831.75
2023-01-18T19:45:08.061Z,99832.55
2023-01-18T19:47:41.538Z,99836.85
2023-01-18T19:50:14.657Z,99840.63
2023-01-18T19:52:47.323Z,99838.61
2023-01-18T19:55:21.070Z,99839.11
2023-01-18T19:57:55.782Z,99842.05
2023-01-18T20:00:29.094Z,99837.67
2023-01-18T20:03:02.234Z,99839.20
2023-01-18T20:05:34.818Z,99838.11
2023-01-18T20:08:08.497Z,99838.09
2023-01-18T20:10:40.753Z,99831.09
2023-01-18T20:13:20.124Z,99823.08
2023-01-18T20:15:54.932Z,99822.36
2023-01-18T20:18:27.560Z,99820.80
2023-01-18T20:21:05.145Z,99821.41
2023-01-18T20:23:38.026Z,99816.77
2023-01-18T20:26:11.641Z,99817.21
2023-01-18T20:28:44.329Z,99811.90
2023-01-18T20:31:16.758Z,99810.31
2023-01-18T20:33:49.555Z,99810.83
2023-01-18T20:36:21.821Z,99818.84
2023-01-18T20:38:54.027Z,99826.73
2023-01-18T20:41:26.313Z,99825.80
2023-01-18T20:43:58.840Z,99826.65
2023-01-18T20:46:31.150Z,99827.39
2023-01-18T20:49:03.714Z,99829.48
2023-01-18T20:51:36.232Z,99826.14
2023-01-18T20:54:08.648Z,99829.45
2023-01-18T20:56:41.078Z,99826.29
2023-01-18T20:59:14.207Z,99822.58
2023-01-18T21:01:48.150Z,99824.71
2023-01-18T21:04:21.272Z,99819.71
2023-01-18T21:06:53.643Z,99820.40
2023-01-18T21:09:25.947Z,99819.15
2023-01-18T21:11:58.655Z,99820.90
2023-01-18T21:14:30.994Z,99823.01
2023-01-18T21:17:03.264Z,99825.23
2023-01-18T21:19:35.607Z,99828.02
2023-01-18T21:22:08.142Z,99819.55
2023-01-18T21:24:40.452Z,99817.27
2023-01-18T21:27:12.985Z,99812.33
2023-01-18T21:29:45.264Z,99823.05
2023-01-18T21:32:17.534Z,99822.27
2023-01-18T21:34:49.912Z,99815.00
2023-01-18T21:37:22.272Z,99821.22
2023-01-18T21:39:54.876Z,99824.65
2023-01-18T21:42:44.809Z,99822.02
2023-01-18T21:45:35.289Z,99816.61
2023-01-18T21:48:08.739Z,99813.52
2023-01-18T21:51:01.048Z,99813.79
2023-01-18T21:53:50.969Z,99814.52
2023-01-18T21:56:23.422Z,99813.40
2023-01-18T21:58:57.996Z,99817.29
2023-01-18T22:01:34.335Z,99814.10
2023-01-18T22:04:25.986Z,99811.98
2023-01-18T22:06:59.469Z,99802.48
2023-01-18T22:09:33.141Z,99801.70
2023-01-18T22:12:05.865Z,99796.68
2023-01-18T22:14:38.064Z,99796.48
2023-01-18T22:17:10.395Z,99798.21
2023-01-18T22:19:44.025Z,99800.73
2023-01-18T22:22:16.338Z,99798.64
2023-01-18T22:24:48.602Z,99798.46
2023-01-18T22:27:20.797Z,99799.66
2023-01-18T22:29:53.066Z,99795.91
2023-01-18T22:32:25.327Z,99790.27
2023-01-18T22:34:57.604Z,99785.91
2023-01-18T22:37:29.762Z,99783.18
2023-01-18T22:40:01.982Z,99778.00
2023-01-18T22:42:35.542Z,99778.08
2023-01-18T22:45:09.284Z,99778.14
2023-01-18T22:47:41.628Z,99774.45
2023-01-18T22:50:14.630Z,99777.64
2023-01-18T22:52:46.909Z,99785.53
2023-01-18T22:55:19.222Z,99783.04
2023-01-18T22:57:51.440Z,99779.09
2023-01-18T23:00:24.741Z,99778.56
2023-01-18T23:02:56.953Z,99776.44
2023-01-18T23:05:29.220Z,99771.66
2023-01-18T23:08:01.727Z,99767.44
2023-01-18T23:10:34.683Z,99766.30
2023-01-18T23:13:07.057Z,99770.13
2023-01-18T23:16:02.951Z,99765.82
2023-01-18T23:18:35.260Z,99765.13
2023-01-18T23:21:07.768Z,99763.31
2023-01-18T23:23:41.947Z,99770.59
2023-01-18T23:26:14.167Z,99766.10
2023-01-18T23:28:46.540Z,99763.36
2023-01-18T23:31:19.871Z,99764.52
2023-01-18T23:33:52.085Z,99770.02
2023-01-18T23:36:24.768Z,99772.77
2023-01-18T23:39:14.401Z,99773.34
2023-01-18T23:42:04.085Z,99769.27
2023-01-18T23:44:53.709Z,99769.60
2023-01-18T23:47:43.312Z,99772.33
2023-01-18T23:50:32.856Z,99775.09
2023-01-18T23:53:22.675Z,99775.83
2023-01-18T23:55:55.395Z,99768.83
2023-01-18T23:58:27.725Z,99762.34
